Time;durP1;ratioP1;P1;durP2;ratioP2;P2;SDS_P1;SDS_P2;PMS_P1;PMS_P2;Temp;Humidity;BMP_temperature;BMP_pressure;BME280_temperature;BME280_humidity;BME280_pressure;Samples;Min_cycle;Max_cycle;Signal;HPM_P1;HPM_P2
2023/01/30 00:02:10;;;;;;;22.20;20.10;;;;;;;5.10;69.26;101760.53;4998474;28;20033;-76
2023/01/30 00:04:36;;;;;;;21.95;19.70;;;;;;;5.11;69.37;101764.03;5015156;28;20366;-78
2023/01/30 00:07:01;;;;;;;14.88;13.85;;;;;;;5.10;69.21;101755.19;5016425;28;20044;-76
2023/01/30 00:09:26;;;;;;;18.10;16.25;;;;;;;5.11;69.55;101777.44;4982500;28;20030;-76
2023/01/30 00:11:52;;;;;;;19.50;17.95;;;;;;;5.12;69.10;101769.22;5016375;28;20044;-78
2023/01/30 00:14:17;;;;;;;18.55;16.90;;;;;;;5.13;69.33;101749.47;4998838;28;20030;-76
2023/01/30 00:16:42;;;;;;;20.73;18.35;;;;;;;5.13;69.45;101748.63;5016777;28;20497;-77
2023/01/30 00:19:08;;;;;;;17.33;16.10;;;;;;;5.13;69.21;101748.63;5015877;28;20065;-75
2023/01/30 00:21:33;;;;;;;19.40;17.77;;;;;;;5.15;69.26;101758.16;5014902;28;20108;-78
2023/01/30 00:23:59;;;;;;;20.85;18.80;;;;;;;5.15;69.26;101763.50;5015322;28;20030;-77
2023/01/30 00:26:25;;;;;;;21.25;19.10;;;;;;;5.16;69.53;101754.44;5015608;28;20041;-78
2023/01/30 00:28:50;;;;;;;21.55;17.73;;;;;;;5.16;69.24;101757.13;5016086;28;20030;-79
2023/01/30 00:31:16;;;;;;;18.98;17.35;;;;;;;5.16;69.40;101754.44;5014921;28;20062;-77
2023/01/30 00:33:41;;;;;;;21.15;18.25;;;;;;;5.17;69.37;101749.94;5015749;28;20060;-77
2023/01/30 00:36:09;;;;;;;22.65;20.38;;;;;;;5.18;69.14;101740.88;5014711;28;20026;-77
2023/01/30 00:38:34;;;;;;;19.52;17.67;;;;;;;5.17;69.33;101737.38;5015913;28;20049;-77
2023/01/30 00:41:00;;;;;;;18.42;16.77;;;;;;;5.19;69.32;101732.69;5016293;28;20034;-77
2023/01/30 00:47:14;;;;;;;29.88;23.20;;;;;;;5.20;69.28;101745.03;5015109;28;20044;-77
2023/01/30 00:49:18;;;;;;;20.77;18.75;;;;;;;5.22;69.17;101742.19;5008127;28;20381;-77
2023/01/30 00:51:44;;;;;;;21.25;18.90;;;;;;;5.21;69.41;101746.69;5015958;28;20042;-79
2023/01/30 00:54:09;;;;;;;26.27;17.90;;;;;;;5.23;69.39;101734.97;5015637;28;20037;-76
2023/01/30 00:56:34;;;;;;;25.50;19.50;;;;;;;5.24;69.47;101733.94;5015545;28;20026;-75
2023/01/30 00:59:03;;;;;;;20.60;18.60;;;;;;;5.24;69.42;101725.91;4998158;28;20128;-78
2023/01/30 01:01:28;;;;;;;19.77;18.13;;;;;;;5.24;69.34;101721.41;5014144;28;20022;-77
2023/01/30 01:03:54;;;;;;;23.90;19.38;;;;;;;5.25;69.50;101723.06;5015533;28;20033;-78
2023/01/30 01:06:19;;;;;;;16.33;15.32;;;;;;;5.25;69.67;101728.44;5013930;28;20033;-78
2023/01/30 01:08:44;;;;;;;19.90;17.90;;;;;;;5.27;69.33;101739.78;4997964;28;20531;-77
2023/01/30 01:11:22;;;;;;;16.85;15.30;;;;;;;5.27;69.50;101726.41;5014138;28;20129;-76
2023/01/30 01:13:48;;;;;;;37.30;22.67;;;;;;;5.28;69.56;101721.88;5014723;28;20116;-77
2023/01/30 01:16:13;;;;;;;18.83;17.05;;;;;;;5.29;69.72;101723.53;5014990;28;20311;-76
2023/01/30 01:18:39;;;;;;;23.30;18.85;;;;;;;5.29;69.38;101719.03;5015207;28;20034;-76
2023/01/30 01:21:04;;;;;;;27.55;18.45;;;;;;;5.29;69.55;101721.69;5014692;28;20029;-76
2023/01/30 01:23:30;;;;;;;15.65;14.52;;;;;;;5.30;69.69;101715.31;5013912;28;20034;-76
2023/01/30 01:25:55;;;;;;;23.48;21.10;;;;;;;5.32;69.58;101710.59;5014965;28;20109;-78
2023/01/30 01:28:21;;;;;;;18.05;16.30;;;;;;;5.31;69.83;101714.28;5014736;28;20112;-76
2023/01/30 01:30:47;;;;;;;16.08;14.68;;;;;;;5.32;69.46;101694.53;5013668;28;20470;-77
2023/01/30 01:33:12;;;;;;;18.05;15.75;;;;;;;5.34;69.63;101707.72;5013348;28;20064;-76
2023/01/30 01:35:40;;;;;;;22.45;20.10;;;;;;;5.34;69.74;101703.22;5013288;28;20107;-77
2023/01/30 01:38:06;;;;;;;23.15;19.92;;;;;;;5.36;69.68;101711.06;5014369;28;20073;-76
2023/01/30 01:43:21;;;;;;;17.60;15.68;;;;;;;5.38;69.59;101709.03;5014774;28;20041;-77
2023/01/30 01:45:50;;;;;;;15.02;13.98;;;;;;;5.38;69.72;101691.09;5014767;28;20100;-78
2023/01/30 01:48:41;;;;;;;19.70;18.02;;;;;;;5.39;70.00;101670.50;5014595;28;20160;-78
2023/01/30 01:51:22;;;;;;;18.80;17.08;;;;;;;5.39;70.05;101666.00;5015085;28;20033;-78
2023/01/30 01:54:02;;;;;;;25.02;21.00;;;;;;;5.40;69.78;101664.97;5014052;28;20112;-79
2023/01/30 01:56:29;;;;;;;19.80;17.85;;;;;;;5.41;69.78;101657.75;5014561;28;20033;-76
2023/01/30 01:59:00;;;;;;;19.52;17.85;;;;;;;5.42;69.83;101648.72;5014149;28;20030;-79
2023/01/30 02:01:27;;;;;;;17.65;16.13;;;;;;;5.42;69.78;101646.84;5014536;28;20022;-77
2023/01/30 02:04:00;;;;;;;16.08;14.90;;;;;;;5.43;69.74;101656.53;5014222;28;20040;-76
2023/01/30 02:06:29;;;;;;;21.65;17.00;;;;;;;5.43;70.12;101664.59;5014152;28;20381;-78
2023/01/30 02:09:01;;;;;;;19.90;18.08;;;;;;;5.47;70.11;101661.53;5012990;28;20392;-77
2023/01/30 02:11:40;;;;;;;19.50;17.48;;;;;;;5.48;70.08;101657.84;5014355;28;20037;-77
2023/01/30 02:14:05;;;;;;;;;;;;;;;5.49;69.82;101635.38;5013016;28;20026;-77
2023/01/30 02:16:31;;;;;;;15.40;14.15;;;;;;;5.49;70.01;101635.38;5013898;28;19967;-77
2023/01/30 02:18:57;;;;;;;22.15;19.23;;;;;;;5.49;69.90;101635.38;5013994;28;20061;-77
2023/01/30 02:21:22;;;;;;;26.38;17.27;;;;;;;5.49;70.03;101638.88;5014042;28;20030;-76
2023/01/30 02:24:05;;;;;;;18.98;17.40;;;;;;;5.51;70.05;101644.06;5014254;28;20030;-77
2023/01/30 02:27:08;;;;;;;18.90;17.15;;;;;;;5.51;70.29;101647.56;5014356;28;20100;-77
2023/01/30 02:30:03;;;;;;;18.42;16.75;;;;;;;5.53;70.08;101645.53;5013628;28;20106;-77
2023/01/30 02:32:40;;;;;;;18.25;16.80;;;;;;;5.55;69.91;101631.97;5013130;28;20033;-77
2023/01/30 02:35:35;;;;;;;29.52;19.70;;;;;;;5.55;70.09;101638.16;5014367;28;20026;-77
2023/01/30 02:38:11;;;;;;;19.42;17.58;;;;;;;5.57;70.10;101640.66;5006824;28;20053;-79
2023/01/30 02:40:55;;;;;;;21.10;17.77;;;;;;;5.58;70.14;101644.97;5013268;28;20404;-78
2023/01/30 02:43:27;;;;;;;20.02;17.80;;;;;;;5.59;70.20;101636.78;5012429;28;20030;-78
2023/01/30 02:46:01;;;;;;;19.52;17.52;;;;;;;5.59;70.27;101626.03;5012523;28;20029;-79
2023/01/30 02:48:46;;;;;;;16.95;15.73;;;;;;;5.61;70.49;101618.63;5013689;28;20030;-77
2023/01/30 02:51:18;;;;;;;26.33;21.33;;;;;;;5.62;70.71;101617.63;5012631;28;20366;-77
2023/01/30 02:53:46;;;;;;;17.13;15.77;;;;;;;5.63;70.40;101624.63;5014015;28;20034;-79
2023/01/30 02:56:12;;;;;;;33.95;16.60;;;;;;;5.66;70.65;101622.59;5012107;28;20037;-78
2023/01/30 02:58:43;;;;;;;16.90;14.98;;;;;;;5.67;70.52;101603.66;5012240;28;20038;-76
2023/01/30 03:01:18;;;;;;;23.08;18.63;;;;;;;5.68;70.85;101609.84;5013756;28;20034;-80
2023/01/30 03:03:58;;;;;;;15.63;14.52;;;;;;;5.70;70.79;101615.84;5013631;28;20049;-78
2023/01/30 03:06:46;;;;;;;19.30;17.42;;;;;;;5.70;70.51;101605.13;5013186;28;20033;-81
2023/01/30 03:09:11;;;;;;;27.77;22.10;;;;;;;5.72;70.64;101609.28;5013090;28;20355;-79
2023/01/30 03:12:02;;;;;;;15.48;14.20;;;;;;;5.73;70.88;101605.56;5013583;28;20450;-77
2023/01/30 03:14:38;;;;;;;17.02;15.57;;;;;;;5.75;70.68;101613.44;5012570;28;20058;-79
2023/01/30 03:17:05;;;;;;;18.05;16.50;;;;;;;5.76;70.62;101605.19;5013746;28;20033;-79
2023/01/30 03:19:31;;;;;;;16.35;14.88;;;;;;;5.77;70.62;101606.88;5013564;28;20029;-79
2023/01/30 03:21:56;;;;;;;15.65;14.55;;;;;;;5.79;70.68;101599.44;5012682;28;20034;-79
2023/01/30 03:24:22;;;;;;;16.42;14.93;;;;;;;5.80;70.83;101592.25;4995830;28;20504;-77
2023/01/30 03:27:09;;;;;;;16.80;15.55;;;;;;;5.81;70.90;101583.16;4995692;28;20061;-78
2023/01/30 03:29:35;;;;;;;18.25;17.02;;;;;;;5.82;70.70;101595.53;5012485;28;20038;-78
2023/01/30 03:32:01;;;;;;;18.02;16.60;;;;;;;5.84;70.73;101588.16;5013018;28;20145;-77
2023/01/30 03:34:26;;;;;;;17.70;15.95;;;;;;;5.86;71.01;101586.13;5012041;28;20044;-77
2023/01/30 03:36:51;;;;;;;15.70;14.52;;;;;;;5.86;70.97;101580.75;5012091;28;20081;-79
2023/01/30 03:39:17;;;;;;;16.30;15.20;;;;;;;5.88;70.81;101585.94;5013531;28;20504;-76
2023/01/30 03:41:43;;;;;;;17.38;15.93;;;;;;;5.89;71.07;101576.84;5012004;28;20076;-79
2023/01/30 03:44:08;;;;;;;18.70;17.17;;;;;;;5.89;70.83;101575.00;5012841;28;20466;-77
2023/01/30 03:46:34;;;;;;;16.00;14.90;;;;;;;5.90;70.93;101584.72;5012015;28;20437;-78
2023/01/30 03:48:59;;;;;;;17.58;16.08;;;;;;;5.92;70.93;101589.88;4996141;28;20058;-79
2023/01/30 03:51:24;;;;;;;18.15;16.80;;;;;;;5.93;70.82;101599.59;5012783;28;20457;-79
2023/01/30 03:53:50;;;;;;;16.40;15.35;;;;;;;5.95;70.95;101590.38;5012910;28;20034;-77
2023/01/30 03:56:15;;;;;;;23.25;19.13;;;;;;;5.96;71.08;101577.78;5013056;28;20433;-79
2023/01/30 03:58:40;;;;;;;17.83;16.35;;;;;;;5.96;71.17;101583.97;5013303;28;20041;-79
2023/01/30 04:01:06;;;;;;;18.17;16.80;;;;;;;5.96;71.28;101572.44;4980416;28;20026;-78
2023/01/30 04:03:32;;;;;;;16.42;14.98;;;;;;;5.98;71.42;101581.94;5015275;28;20431;-76
2023/01/30 04:05:58;;;;;;;18.00;16.65;;;;;;;6.00;71.17;101593.31;5016715;28;20064;-76
2023/01/30 04:08:23;;;;;;;17.83;16.33;;;;;;;6.02;71.08;101593.09;4998762;28;20058;-79
2023/01/30 04:10:48;;;;;;;22.20;17.52;;;;;;;6.03;71.42;101592.91;5016701;28;20053;-77
2023/01/30 04:13:14;;;;;;;19.90;16.90;;;;;;;6.03;71.34;101584.88;5015067;28;20061;-79
2023/01/30 04:15:39;;;;;;;16.90;15.60;;;;;;;6.04;71.35;101589.19;5016041;28;20033;-78
2023/01/30 04:18:05;;;;;;;15.75;14.55;;;;;;;6.06;71.40;101591.72;5015119;28;20546;-79
2023/01/30 04:20:30;;;;;;;16.02;14.65;;;;;;;6.07;71.22;101577.25;5015036;28;20030;-77
2023/01/30 04:22:55;;;;;;;17.83;16.27;;;;;;;6.09;71.25;101569.84;5014995;28;20045;-80
2023/01/30 04:25:21;;;;;;;19.13;17.25;;;;;;;6.11;71.20;101562.44;5016430;28;20120;-80
2023/01/30 04:27:46;;;;;;;16.90;15.63;;;;;;;6.11;71.43;101556.25;5014576;28;20028;-80
2023/01/30 04:30:12;;;;;;;20.25;16.70;;;;;;;6.12;71.11;101560.59;5014663;28;20060;-80
2023/01/30 04:32:37;;;;;;;17.05;15.95;;;;;;;6.14;71.05;101558.56;5015197;28;20026;-79
2023/01/30 04:35:03;;;;;;;15.35;14.35;;;;;;;6.14;71.17;101564.75;5016036;28;20033;-78
2023/01/30 04:37:29;;;;;;;17.98;16.67;;;;;;;6.16;71.37;101561.88;5013787;28;20054;-76
2023/01/30 04:39:55;;;;;;;18.60;17.10;;;;;;;6.17;71.58;101552.78;5015259;28;20052;-76
2023/01/30 04:42:20;;;;;;;18.58;17.17;;;;;;;6.18;71.51;101559.84;5014840;28;20045;-77
2023/01/30 04:44:46;;;;;;;21.13;17.60;;;;;;;6.19;71.42;101562.31;5015795;28;20371;-79
2023/01/30 04:47:11;;;;;;;19.90;18.30;;;;;;;6.21;71.68;101570.19;5015957;28;20058;-77
2023/01/30 04:49:36;;;;;;;17.20;15.80;;;;;;;6.22;72.00;101564.63;5015542;28;20080;-76
2023/01/30 04:52:02;;;;;;;19.17;17.63;;;;;;;6.22;71.90;101567.31;5014876;28;20030;-77
2023/01/30 04:54:27;;;;;;;17.13;15.95;;;;;;;6.23;71.88;101579.69;5015600;28;20030;-77
2023/01/30 04:56:53;;;;;;;17.83;16.15;;;;;;;6.25;71.83;101579.50;4998402;28;20088;-78
2023/01/30 04:59:18;;;;;;;19.42;17.58;;;;;;;6.24;71.86;101570.59;5015485;28;20458;-77
2023/01/30 05:01:44;;;;;;;16.58;15.27;;;;;;;6.25;71.87;101577.66;5014626;28;20030;-79
2023/01/30 05:04:09;;;;;;;22.88;18.85;;;;;;;6.26;72.02;101581.97;5015433;28;20041;-79
2023/01/30 05:06:35;;;;;;;22.73;17.25;;;;;;;6.27;72.12;101598.91;4997788;28;20022;-79
2023/01/30 05:09:01;;;;;;;17.95;16.40;;;;;;;6.28;71.94;101593.34;5014286;28;20038;-76
2023/01/30 05:11:28;;;;;;;14.98;13.98;;;;;;;6.29;72.10;101615.63;5013963;28;20460;-76
2023/01/30 05:13:53;;;;;;;17.35;15.60;;;;;;;6.29;71.71;101589.63;5015152;28;20033;-77
2023/01/30 05:16:21;;;;;;;19.55;17.95;;;;;;;6.32;71.98;101592.97;5015118;28;20159;-79
2023/01/30 05:18:47;;;;;;;17.00;15.50;;;;;;;6.33;71.76;101597.31;5015266;28;20034;-79
2023/01/30 05:21:15;;;;;;;18.42;16.95;;;;;;;6.35;72.13;101597.94;5014120;28;20037;-80
2023/01/30 05:23:41;;;;;;;24.55;17.95;;;;;;;6.36;72.05;101594.25;5015687;28;20030;-78
2023/01/30 05:26:07;;;;;;;16.73;15.15;;;;;;;6.37;71.88;101604.75;5015372;28;20029;-76
2023/01/30 05:28:32;;;;;;;18.58;16.77;;;;;;;6.38;71.89;101594.88;5014972;28;20525;-77
2023/01/30 05:31:02;;;;;;;18.20;16.60;;;;;;;6.39;71.67;101589.31;5015083;28;20069;-76
2023/01/30 05:33:28;;;;;;;17.08;15.68;;;;;;;6.40;72.01;101585.63;5015071;28;20030;-79
2023/01/30 05:35:53;;;;;;;17.38;16.10;;;;;;;6.42;71.98;101594.28;5014931;28;20029;-78
2023/01/30 05:38:19;;;;;;;19.95;17.52;;;;;;;6.43;71.98;101581.72;4997232;28;20164;-77
2023/01/30 05:40:44;;;;;;;18.58;16.67;;;;;;;6.44;72.14;101578.00;5013346;28;20084;-80
2023/01/30 05:43:09;;;;;;;23.70;17.33;;;;;;;6.46;72.05;101573.25;5013987;28;20034;-79
2023/01/30 05:45:35;;;;;;;16.42;15.27;;;;;;;6.47;72.19;101578.41;5013471;28;20048;-79
2023/01/30 05:48:01;;;;;;;18.52;17.08;;;;;;;6.47;72.15;101570.38;5014843;28;20425;-79
2023/01/30 05:50:27;;;;;;;18.63;16.45;;;;;;;6.47;71.99;101575.75;4997739;28;20068;-79
2023/01/30 05:52:52;;;;;;;19.50;16.27;;;;;;;6.50;72.05;101566.47;5015047;28;20034;-79
2023/01/30 05:55:17;;;;;;;17.40;15.75;;;;;;;6.50;72.01;101578.06;5013667;28;20064;-79
2023/01/30 05:57:43;;;;;;;15.88;14.60;;;;;;;6.52;72.08;101579.69;5012965;28;20033;-78
2023/01/30 06:00:09;;;;;;;16.23;14.93;;;;;;;6.52;72.09;101610.06;5014455;28;20574;-78
2023/01/30 06:02:35;;;;;;;17.27;15.68;;;;;;;6.53;71.88;101609.03;5012978;28;20030;-79
2023/01/30 06:05:00;;;;;;;16.73;15.48;;;;;;;6.55;71.88;101606.16;5013206;28;20038;-78
2023/01/30 06:07:25;;;;;;;17.25;16.00;;;;;;;6.56;71.78;101594.41;5014130;28;20057;-79
2023/01/30 06:09:51;;;;;;;16.92;15.40;;;;;;;6.55;71.99;101609.69;5013007;28;20026;-78
2023/01/30 06:12:16;;;;;;;20.85;13.68;;;;;;;6.58;71.85;101611.16;5013001;28;20117;-79
2023/01/30 06:14:42;;;;;;;16.58;14.93;;;;;;;6.57;71.96;101621.03;5014167;28;20030;-78
2023/01/30 06:17:07;;;;;;;13.82;12.82;;;;;;;6.58;71.82;101621.88;4996847;28;20038;-78
2023/01/30 06:19:33;;;;;;;15.82;14.35;;;;;;;6.58;71.63;101616.53;5014333;28;20038;-78
2023/01/30 06:21:58;;;;;;;14.82;13.93;;;;;;;6.60;71.72;101617.97;5013101;28;20037;-79
2023/01/30 06:24:23;;;;;;;16.77;15.18;;;;;;;6.61;71.95;101625.00;5013447;28;20030;-79
2023/01/30 06:26:49;;;;;;;16.00;14.60;;;;;;;6.61;71.78;101619.63;5014202;28;20379;-79
2023/01/30 06:29:14;;;;;;;15.85;14.52;;;;;;;6.62;71.60;101621.28;5014238;28;20046;-79
2023/01/30 06:31:39;;;;;;;16.10;15.05;;;;;;;6.63;71.80;101649.81;5012387;28;20072;-78
2023/01/30 06:34:05;;;;;;;16.23;15.05;;;;;;;6.66;71.72;101656.63;4997072;28;20104;-78
2023/01/30 06:36:31;;;;;;;14.60;13.70;;;;;;;6.66;71.73;101667.38;5013579;28;20036;-79
2023/01/30 06:38:56;;;;;;;18.52;15.85;;;;;;;6.66;71.75;101629.78;5013712;28;20034;-79
2023/01/30 06:41:22;;;;;;;18.02;15.02;;;;;;;6.68;71.82;101635.81;5013848;28;20457;-79
2023/01/30 06:43:47;;;;;;;15.88;14.75;;;;;;;6.68;71.42;101635.81;4979882;28;20533;-81
2023/01/30 06:46:12;;;;;;;15.52;14.23;;;;;;;6.68;71.32;101639.31;4980071;28;20026;-79
2023/01/30 06:48:38;;;;;;;14.77;13.57;;;;;;;6.69;71.49;101646.31;5013716;28;20512;-79
2023/01/30 06:51:03;;;;;;;15.63;14.57;;;;;;;6.70;71.36;101650.69;5012286;28;20044;-79
2023/01/30 06:53:31;;;;;;;16.40;14.93;;;;;;;6.70;71.35;101649.84;5013645;28;20026;-79
2023/01/30 06:55:58;;;;;;;18.33;16.90;;;;;;;6.71;71.38;101646.16;5013875;28;20041;-79
2023/01/30 06:58:24;;;;;;;17.17;15.90;;;;;;;6.72;71.16;101634.38;5012378;28;20056;-79
2023/01/30 07:00:50;;;;;;;22.35;16.08;;;;;;;6.73;71.55;101638.72;5012727;28;20041;-78
2023/01/30 07:03:16;;;;;;;18.10;16.90;;;;;;;6.73;71.10;101633.34;5013592;28;20085;-79
2023/01/30 07:05:44;;;;;;;15.13;14.20;;;;;;;6.73;71.33;101619.94;5013092;28;20030;-79
2023/01/30 07:08:09;;;;;;;14.65;13.75;;;;;;;6.74;71.28;101623.44;4996032;28;20033;-78
2023/01/30 07:10:35;;;;;;;16.10;15.07;;;;;;;6.74;71.25;101626.13;5013475;28;20033;-79
2023/01/30 07:13:01;;;;;;;15.63;14.48;;;;;;;6.74;71.28;101628.81;5013747;28;20026;-79
2023/01/30 07:15:27;;;;;;;17.48;15.93;;;;;;;6.74;71.15;101645.75;5013615;28;20092;-79
2023/01/30 07:17:53;;;;;;;15.20;14.07;;;;;;;6.73;70.85;101644.09;5013513;28;20034;-79
2023/01/30 07:20:18;;;;;;;14.80;13.48;;;;;;;6.72;71.14;101647.78;5012287;28;20068;-79
2023/01/30 07:22:52;;;;;;;16.63;15.20;;;;;;;6.74;71.00;101658.34;5011804;28;20136;-79
2023/01/30 07:25:18;;;;;;;13.77;13.02;;;;;;;6.73;70.96;101662.91;5012155;28;20026;-79
2023/01/30 07:28:03;;;;;;;15.35;14.45;;;;;;;6.73;70.94;101665.59;5013369;28;20037;-79
2023/01/30 07:30:30;;;;;;;17.20;15.77;;;;;;;6.72;70.95;101669.28;5012391;28;20522;-80
2023/01/30 07:32:58;;;;;;;16.27;15.10;;;;;;;6.73;70.93;101668.28;5013057;28;20083;-79
2023/01/30 07:35:25;;;;;;;16.13;15.02;;;;;;;6.74;70.87;101671.78;5013503;28;20466;-80
2023/01/30 07:37:51;;;;;;;16.58;15.00;;;;;;;6.74;70.90;101682.50;5014552;28;20078;-78
2023/01/30 07:40:17;;;;;;;16.90;15.60;;;;;;;6.74;70.84;101682.50;5015816;28;20469;-80
2023/01/30 07:42:43;;;;;;;14.43;13.35;;;;;;;6.74;71.01;101679.84;5016612;28;20042;-80
2023/01/30 07:45:09;;;;;;;18.23;15.07;;;;;;;6.74;70.58;101682.50;5016343;28;20041;-80
2023/01/30 07:47:35;;;;;;;17.30;16.05;;;;;;;6.73;70.91;101681.69;5015252;28;20037;-81
2023/01/30 07:50:01;;;;;;;16.17;14.63;;;;;;;6.73;70.69;101687.06;5015579;28;20030;-77
2023/01/30 07:52:27;;;;;;;18.35;16.48;;;;;;;6.74;70.60;101690.56;5016412;28;20168;-79
2023/01/30 07:54:52;;;;;;;15.63;14.57;;;;;;;6.74;70.29;101683.34;5015511;28;20358;-77
2023/01/30 07:57:17;;;;;;;17.27;15.93;;;;;;;6.73;70.59;101681.69;5015612;28;20101;-77
2023/01/30 07:59:43;;;;;;;17.10;15.55;;;;;;;6.72;70.55;101680.00;5016525;28;20588;-80
2023/01/30 08:02:10;;;;;;;15.05;13.63;;;;;;;6.72;70.50;101694.25;4982591;28;20030;-79
2023/01/30 08:04:35;;;;;;;17.73;16.05;;;;;;;6.73;70.67;101684.38;5015055;28;20026;-79
2023/01/30 08:07:01;;;;;;;14.18;13.20;;;;;;;6.73;70.41;101684.38;4998780;28;20046;-80
2023/01/30 08:09:26;;;;;;;19.10;17.27;;;;;;;6.72;70.44;101685.38;5015076;28;20029;-80
2023/01/30 08:11:51;;;;;;;17.90;16.38;;;;;;;6.72;70.43;101696.13;5016251;28;20429;-80
2023/01/30 08:14:17;;;;;;;14.63;13.82;;;;;;;6.71;70.31;101699.84;5014703;28;20085;-81
2023/01/30 08:16:42;;;;;;;15.25;14.25;;;;;;;6.71;70.48;101707.91;5014766;28;20038;-79
2023/01/30 08:19:07;;;;;;;15.05;13.77;;;;;;;6.71;70.55;101705.22;5014717;28;20038;-78
2023/01/30 08:21:33;;;;;;;18.58;16.80;;;;;;;6.70;70.54;101704.38;5014377;28;20044;-79
2023/01/30 08:23:58;;;;;;;15.55;14.45;;;;;;;6.70;70.57;101714.28;5014554;28;20414;-78
2023/01/30 08:26:24;;;;;;;15.70;14.80;;;;;;;6.70;70.41;101733.94;5016345;28;20083;-78
2023/01/30 08:28:49;;;;;;;15.68;14.68;;;;;;;6.70;70.51;101730.38;5014551;28;20042;-76
2023/01/30 08:31:16;;;;;;;16.55;15.55;;;;;;;6.70;70.25;101723.19;5015793;28;20469;-78
2023/01/30 08:33:41;;;;;;;18.27;16.75;;;;;;;6.70;70.17;101725.88;4998019;28;20512;-78
2023/01/30 08:36:07;;;;;;;14.50;13.50;;;;;;;6.68;70.48;101727.91;4998242;28;20069;-78
2023/01/30 08:38:33;;;;;;;21.65;14.50;;;;;;;6.68;70.27;101724.41;5014170;28;20057;-80
2023/01/30 08:40:59;;;;;;;17.90;16.10;;;;;;;6.69;70.22;101728.75;5014522;28;20033;-79
2023/01/30 08:43:25;;;;;;;17.35;16.02;;;;;;;6.68;69.90;101729.78;5014514;28;20049;-79
2023/01/30 08:45:55;;;;;;;17.88;16.27;;;;;;;6.68;70.23;101743.19;5013953;28;20482;-78
2023/01/30 08:48:22;;;;;;;17.23;15.48;;;;;;;6.67;70.15;101725.41;5014986;28;20056;-77
2023/01/30 08:50:51;;;;;;;16.58;15.50;;;;;;;6.66;70.15;101727.25;5015552;28;20042;-78
2023/01/30 08:53:17;;;;;;;15.63;14.45;;;;;;;6.65;70.33;101725.63;5015238;28;20474;-78
2023/01/30 08:55:44;;;;;;;18.23;16.58;;;;;;;6.65;70.17;101724.75;5015048;28;20037;-79
2023/01/30 08:58:09;;;;;;;14.48;13.23;;;;;;;6.64;70.15;101732.00;5013975;28;20110;-78
2023/01/30 09:00:34;;;;;;;17.88;16.48;;;;;;;6.64;70.51;101742.72;5013867;28;20409;-79
2023/01/30 09:03:01;;;;;;;16.05;15.05;;;;;;;6.64;70.30;101752.66;5013572;28;20029;-78
2023/01/30 09:05:27;;;;;;;16.10;14.95;;;;;;;6.64;70.21;101760.69;5013779;28;20476;-78
2023/01/30 09:07:52;;;;;;;18.45;16.73;;;;;;;6.64;70.06;101747.28;5014393;28;20030;-79
2023/01/30 09:10:18;;;;;;;16.00;14.52;;;;;;;6.63;70.28;101754.50;5013591;28;20117;-77
2023/01/30 09:12:43;;;;;;;19.42;16.15;;;;;;;6.64;70.40;101747.28;4997023;28;20051;-80
2023/01/30 09:15:10;;;;;;;17.20;15.45;;;;;;;6.63;70.20;101751.81;5013692;28;20438;-77
2023/01/30 09:17:36;;;;;;;19.45;17.60;;;;;;;6.64;70.36;101761.53;5013211;28;20022;-78
2023/01/30 09:20:03;;;;;;;17.35;15.55;;;;;;;6.64;70.09;101772.25;5013359;28;20033;-78
2023/01/30 09:22:28;;;;;;;16.85;14.90;;;;;;;6.63;70.25;101769.78;5013519;28;20157;-79
2023/01/30 09:24:54;;;;;;;20.23;17.27;;;;;;;6.63;70.13;101761.72;5014915;28;20485;-77
2023/01/30 09:27:19;;;;;;;17.70;16.10;;;;;;;6.63;70.17;101767.09;5014535;28;20077;-76
2023/01/30 09:29:45;;;;;;;19.65;15.60;;;;;;;6.63;70.10;101788.59;4996692;28;20041;-78
2023/01/30 09:32:10;;;;;;;17.17;15.98;;;;;;;6.62;70.04;101777.00;5014903;28;20029;-76
2023/01/30 09:34:35;;;;;;;17.40;16.08;;;;;;;6.60;70.15;101789.78;5014058;28;20123;-77
2023/01/30 09:37:01;;;;;;;15.80;14.80;;;;;;;6.61;70.01;101793.31;5014115;28;20473;-75
2023/01/30 09:39:28;;;;;;;16.48;15.10;;;;;;;6.62;70.09;101787.72;5014291;28;20037;-76
2023/01/30 09:42:14;;;;;;;22.23;16.10;;;;;;;6.62;69.95;101792.28;5014207;28;20029;-77
2023/01/30 09:44:45;;;;;;;19.08;17.08;;;;;;;6.62;70.33;101809.19;5014403;28;20026;-77
2023/01/30 09:47:24;;;;;;;14.32;13.20;;;;;;;6.62;70.37;101811.88;5014438;28;20486;-77
2023/01/30 09:50:08;;;;;;;18.33;15.90;;;;;;;6.63;70.22;101807.38;5014001;28;20030;-76
2023/01/30 09:53:11;;;;;;;16.50;14.50;;;;;;;6.62;70.32;101811.88;5014528;28;20026;-76
2023/01/30 09:55:40;;;;;;;17.33;15.90;;;;;;;6.61;69.99;101810.25;5013666;28;20025;-78
2023/01/30 09:58:16;;;;;;;15.35;14.32;;;;;;;6.62;69.99;101800.31;5013637;28;20055;-77
2023/01/30 10:00:42;;;;;;;25.38;18.67;;;;;;;6.62;70.34;101808.38;5013889;28;20084;-78
2023/01/30 10:03:18;;;;;;;14.52;13.60;;;;;;;6.62;70.09;101835.22;5012703;28;20486;-76
2023/01/30 10:05:48;;;;;;;17.90;16.42;;;;;;;6.64;70.21;101838.56;5013691;28;20080;-79
2023/01/30 10:08:43;;;;;;;15.27;13.88;;;;;;;6.65;70.34;101829.47;5013356;28;20026;-78
2023/01/30 10:11:26;;;;;;;14.52;13.43;;;;;;;6.64;69.94;101817.06;4992098;28;20064;-76
2023/01/30 10:14:26;;;;;;;17.13;15.73;;;;;;;6.66;70.16;101825.78;5013582;28;20022;-77
2023/01/30 10:17:29;;;;;;;18.02;16.60;;;;;;;6.65;70.05;101824.09;5013525;28;20022;-77
2023/01/30 10:20:30;;;;;;;18.33;16.80;;;;;;;6.66;70.15;101837.34;5013376;28;20030;-77
2023/01/30 10:23:16;;;;;;;15.05;13.82;;;;;;;6.67;70.00;101847.06;5012451;28;20372;-78
2023/01/30 10:25:49;;;;;;;17.58;16.15;;;;;;;6.69;69.84;101849.56;5012144;28;20087;-76
2023/01/30 10:28:24;;;;;;;16.13;14.98;;;;;;;6.70;69.92;101851.22;5013641;28;20026;-76
2023/01/30 10:30:54;;;;;;;19.88;18.33;;;;;;;6.71;70.06;101842.16;5013210;28;20466;-77
2023/01/30 10:33:29;;;;;;;15.75;14.85;;;;;;;6.73;70.00;101864.28;5013410;28;20060;-78
2023/01/30 10:36:07;;;;;;;22.33;18.58;;;;;;;6.73;69.80;101834.75;5013698;28;20094;-78
2023/01/30 10:38:41;;;;;;;13.75;12.90;;;;;;;6.74;69.89;101838.25;5011518;28;20184;-79
2023/01/30 10:41:35;;;;;;;16.30;15.20;;;;;;;6.77;69.96;101859.34;5013545;28;20037;-76
2023/01/30 10:44:13;;;;;;;17.02;15.77;;;;;;;6.77;70.07;101876.28;5009947;28;20398;-76
2023/01/30 10:46:52;;;;;;;20.10;18.17;;;;;;;6.78;69.94;101866.38;5013121;28;20025;-78
2023/01/30 10:49:39;;;;;;;16.00;14.88;;;;;;;6.79;70.13;101866.19;5013447;28;20030;-78
2023/01/30 10:52:43;;;;;;;17.40;15.95;;;;;;;6.80;69.91;101875.91;5013271;28;20036;-77
2023/01/30 10:55:14;;;;;;;13.68;12.88;;;;;;;6.82;69.73;101873.88;4980095;28;20038;-78
2023/01/30 10:57:57;;;;;;;17.15;15.73;;;;;;;6.84;69.91;101874.50;5012853;28;20026;-78
2023/01/30 11:00:33;;;;;;;17.52;16.20;;;;;;;6.83;69.91;101872.00;5013085;28;20077;-77
2023/01/30 11:03:08;;;;;;;18.33;16.65;;;;;;;6.83;69.65;101867.50;5011889;28;20029;-75
2023/01/30 11:05:50;;;;;;;16.83;15.48;;;;;;;6.83;69.91;101872.84;5013410;28;20034;-78
2023/01/30 11:08:24;;;;;;;17.23;15.93;;;;;;;6.86;69.76;101866.28;5013497;28;20061;-78
2023/01/30 11:10:50;;;;;;;16.92;15.43;;;;;;;6.87;69.96;101863.38;5015044;28;20083;-77
2023/01/30 11:13:18;;;;;;;15.45;13.98;;;;;;;6.90;69.89;101872.91;5016261;28;20057;-77
2023/01/30 11:15:47;;;;;;;19.52;17.60;;;;;;;6.90;69.76;101864.84;5017025;28;20052;-79
2023/01/30 11:18:14;;;;;;;15.27;14.27;;;;;;;6.93;69.75;101867.19;5017165;28;20367;-77
2023/01/30 11:20:42;;;;;;;18.30;15.35;;;;;;;6.93;69.58;101867.19;5015831;28;20044;-77
2023/01/30 11:23:32;;;;;;;18.80;16.87;;;;;;;6.94;69.46;101869.66;5016839;28;20028;-77
2023/01/30 11:25:59;;;;;;;16.27;14.65;;;;;;;6.97;69.63;101867.63;5016233;28;20041;-79
2023/01/30 11:28:26;;;;;;;15.40;14.20;;;;;;;6.97;69.55;101863.06;5015826;28;20038;-76
2023/01/30 11:31:00;;;;;;;17.13;15.68;;;;;;;6.98;69.79;101855.84;5016752;28;20456;-77
2023/01/30 11:33:35;;;;;;;17.27;14.80;;;;;;;7.00;69.85;101861.84;5016350;28;20138;-78